createdAt,value
2023-02-21T00:00:02.849Z,10.00
2023-02-21T00:02:48.713Z,10.10
2023-02-21T00:05:34.725Z,10.00
2023-02-21T00:08:20.945Z,10.00
2023-02-21T00:11:06.796Z,9.90
2023-02-21T00:13:56.384Z,10.00
2023-02-21T00:16:42.480Z,10.00
2023-02-21T00:19:28.593Z,10.00
2023-02-21T00:22:14.466Z,10.00
2023-02-21T00:25:00.408Z,10.00
2023-02-21T00:27:46.111Z,9.90
2023-02-21T00:30:34.341Z,10.00
2023-02-21T00:33:20.040Z,10.00
2023-02-21T00:36:05.894Z,10.00
2023-02-21T00:38:51.706Z,10.00
2023-02-21T00:41:37.323Z,10.00
2023-02-21T00:44:23.479Z,10.00
2023-02-21T00:47:09.706Z,10.00
2023-02-21T00:49:55.263Z,10.00
2023-02-21T00:52:41.007Z,10.00
2023-02-21T00:55:26.920Z,10.10
2023-02-21T00:58:12.578Z,10.10
2023-02-21T01:00:58.348Z,10.10
2023-02-21T01:03:43.830Z,10.10
2023-02-21T01:06:31.306Z,10.10
2023-02-21T01:09:17.244Z,10.10
2023-02-21T01:12:03.104Z,10.10
2023-02-21T01:14:49.228Z,10.20
2023-02-21T01:17:34.795Z,10.10
2023-02-21T01:20:20.580Z,10.20
2023-02-21T01:23:06.392Z,10.20
2023-02-21T01:25:52.096Z,10.10
2023-02-21T01:28:38.012Z,10.10
2023-02-21T01:31:23.999Z,10.10
2023-02-21T01:34:09.798Z,10.10
2023-02-21T01:36:55.645Z,10.10
2023-02-21T01:39:41.532Z,10.10
2023-02-21T01:42:29.426Z,10.10
2023-02-21T01:45:39.541Z,10.10
2023-02-21T01:48:33.432Z,10.00
2023-02-21T01:51:22.828Z,10.00
2023-02-21T01:54:08.787Z,10.00
2023-02-21T01:56:55.405Z,10.10
2023-02-21T01:59:43.385Z,10.00
2023-02-21T02:02:36.298Z,10.00
2023-02-21T02:05:24.237Z,10.00
2023-02-21T02:08:11.571Z,10.10
2023-02-21T02:10:57.946Z,10.10
2023-02-21T02:13:59.125Z,10.10
2023-02-21T02:16:35.829Z,10.00
2023-02-21T02:19:21.699Z,10.00
2023-02-21T02:22:13.610Z,10.00
2023-02-21T02:24:45.263Z,10.00
2023-02-21T02:27:31.486Z,9.90
2023-02-21T02:30:36.784Z,9.90
2023-02-21T02:33:30.346Z,9.90
2023-02-21T02:36:22.467Z,9.90
2023-02-21T02:39:29.221Z,9.80
2023-02-21T02:42:33.810Z,9.80
2023-02-21T02:45:07.467Z,9.70
2023-02-21T02:47:38.941Z,9.70
2023-02-21T02:50:09.027Z,9.60
2023-02-21T02:52:37.084Z,9.60
2023-02-21T02:55:22.986Z,9.60
2023-02-21T02:57:52.346Z,9.50
2023-02-21T03:00:20.079Z,9.40
2023-02-21T03:03:13.937Z,9.40
2023-02-21T03:06:18.014Z,9.40
2023-02-21T03:08:52.292Z,9.30
2023-02-21T03:11:23.389Z,9.30
2023-02-21T03:14:15.999Z,9.30
2023-02-21T03:16:54.794Z,9.30
2023-02-21T03:19:28.871Z,9.30
2023-02-21T03:22:26.957Z,9.30
2023-02-21T03:24:55.652Z,9.40
2023-02-21T03:27:24.848Z,9.30
2023-02-21T03:29:54.933Z,9.30
2023-02-21T03:32:30.776Z,9.30
2023-02-21T03:34:58.036Z,9.30
2023-02-21T03:37:39.233Z,9.20
2023-02-21T03:40:10.168Z,9.20
2023-02-21T03:42:37.376Z,9.20
2023-02-21T03:45:04.845Z,9.20
2023-02-21T03:47:32.145Z,9.20
2023-02-21T03:49:59.269Z,9.10
2023-02-21T03:52:26.484Z,9.10
2023-02-21T03:54:53.658Z,9.10
2023-02-21T03:57:20.856Z,9.00
2023-02-21T03:59:48.036Z,9.00
2023-02-21T04:02:15.818Z,9.00
2023-02-21T04:04:42.994Z,9.00
2023-02-21T04:07:10.757Z,9.00
2023-02-21T04:09:39.177Z,9.00
2023-02-21T04:12:06.671Z,9.10
2023-02-21T04:14:33.824Z,9.10
2023-02-21T04:17:03.745Z,9.10
2023-02-21T04:19:31.231Z,9.10
2023-02-21T04:21:58.484Z,9.20
2023-02-21T04:24:25.865Z,9.10
2023-02-21T04:26:53.814Z,9.20
2023-02-21T04:29:21.183Z,9.20
2023-02-21T04:31:48.385Z,9.10
2023-02-21T04:34:15.966Z,9.10
2023-02-21T04:36:43.257Z,9.20
2023-02-21T04:39:10.931Z,9.10
2023-02-21T04:41:38.231Z,9.20
2023-02-21T04:44:06.533Z,9.20
2023-02-21T04:46:34.149Z,9.10
2023-02-21T04:49:01.400Z,9.20
2023-02-21T04:51:28.621Z,9.20
2023-02-21T04:53:59.003Z,9.20
2023-02-21T04:56:28.237Z,9.30
2023-02-21T04:58:56.625Z,9.20
2023-02-21T05:01:27.325Z,9.10
2023-02-21T05:03:55.028Z,9.10
2023-02-21T05:06:23.988Z,9.10
2023-02-21T05:08:51.968Z,9.20
2023-02-21T05:11:20.639Z,9.20
2023-02-21T05:13:48.609Z,9.20
2023-02-21T05:16:16.258Z,9.20
2023-02-21T05:18:44.983Z,9.30
2023-02-21T05:21:13.316Z,9.20
2023-02-21T05:23:43.003Z,9.30
2023-02-21T05:26:13.472Z,9.30
2023-02-21T05:28:42.461Z,9.30
2023-02-21T05:31:09.933Z,9.30
2023-02-21T05:33:37.434Z,9.30
2023-02-21T05:36:05.088Z,9.30
2023-02-21T05:38:32.408Z,9.20
2023-02-21T05:41:00.157Z,9.20
2023-02-21T05:43:29.087Z,9.20
2023-02-21T05:45:56.944Z,9.20
2023-02-21T05:48:24.308Z,9.10
2023-02-21T05:50:51.446Z,9.10
2023-02-21T05:53:19.517Z,9.10
2023-02-21T05:55:46.677Z,9.10
2023-02-21T05:58:13.824Z,9.10
2023-02-21T06:00:41.039Z,9.00
2023-02-21T06:03:09.068Z,9.00
2023-02-21T06:05:36.539Z,9.00
2023-02-21T06:08:03.799Z,9.00
2023-02-21T06:10:30.916Z,9.00
2023-02-21T06:12:58.127Z,9.10
2023-02-21T06:15:25.279Z,9.10
2023-02-21T06:17:52.497Z,9.20
2023-02-21T06:20:19.959Z,9.20
2023-02-21T06:22:48.245Z,9.30
2023-02-21T06:25:16.350Z,9.30
2023-02-21T06:27:44.289Z,9.40
2023-02-21T06:30:12.371Z,9.40
2023-02-21T06:32:39.684Z,9.50
2023-02-21T06:35:07.413Z,9.50
2023-02-21T06:37:35.375Z,9.50
2023-02-21T06:40:06.074Z,9.40
2023-02-21T06:42:33.613Z,9.40
2023-02-21T06:45:00.859Z,9.40
2023-02-21T06:47:28.084Z,9.40
2023-02-21T06:49:55.366Z,9.40
2023-02-21T06:52:22.741Z,9.40
2023-02-21T06:54:53.827Z,9.40
2023-02-21T06:57:21.039Z,9.50
2023-02-21T06:59:48.150Z,9.40
2023-02-21T07:02:20.317Z,9.40
2023-02-21T07:04:48.270Z,9.40
2023-02-21T07:07:15.850Z,9.40
2023-02-21T07:09:43.073Z,9.40
2023-02-21T07:12:10.300Z,9.50
2023-02-21T07:14:37.517Z,9.50
2023-02-21T07:17:04.846Z,9.50
2023-02-21T07:19:32.421Z,9.50
2023-02-21T07:21:59.581Z,9.60
2023-02-21T07:24:26.837Z,9.60
2023-02-21T07:26:54.789Z,9.60
2023-02-21T07:29:22.157Z,9.70
2023-02-21T07:31:49.551Z,9.70
2023-02-21T07:34:17.042Z,9.70
2023-02-21T07:36:44.662Z,9.70
2023-02-21T07:39:12.234Z,9.70
2023-02-21T07:41:39.435Z,9.70
2023-02-21T07:44:08.043Z,9.70
2023-02-21T07:46:35.654Z,9.80
2023-02-21T07:49:03.575Z,9.90
2023-02-21T07:51:31.743Z,9.90
2023-02-21T07:53:59.081Z,9.80
2023-02-21T07:56:26.377Z,9.90
2023-02-21T07:58:53.646Z,10.00
2023-02-21T08:01:24.984Z,10.00
2023-02-21T08:03:52.365Z,10.10
2023-02-21T08:06:19.954Z,10.20
2023-02-21T08:08:48.696Z,10.20
2023-02-21T08:11:16.284Z,10.20
2023-02-21T08:13:44.648Z,10.30
2023-02-21T08:16:11.933Z,10.40
2023-02-21T08:18:39.441Z,10.50
2023-02-21T08:21:10.278Z,10.50
2023-02-21T08:23:37.482Z,10.60
2023-02-21T08:26:06.245Z,10.70
2023-02-21T08:28:33.418Z,10.70
2023-02-21T08:31:00.826Z,10.70
2023-02-21T08:33:30.070Z,10.70
2023-02-21T08:35:58.729Z,10.70
2023-02-21T08:38:25.980Z,10.80
2023-02-21T08:40:54.050Z,10.90
2023-02-21T08:43:22.128Z,10.90
2023-02-21T08:45:49.394Z,11.10
2023-02-21T08:48:16.636Z,11.00
2023-02-21T08:50:44.126Z,10.90
2023-02-21T08:53:15.408Z,10.70
2023-02-21T08:55:43.422Z,10.70
2023-02-21T08:58:13.209Z,10.60
2023-02-21T09:00:40.380Z,10.50
2023-02-21T09:03:07.804Z,10.60
2023-02-21T09:05:36.539Z,10.50
2023-02-21T09:08:05.695Z,10.50
2023-02-21T09:10:34.215Z,10.60
2023-02-21T09:13:02.701Z,10.70
2023-02-21T09:15:29.859Z,10.80
2023-02-21T09:17:57.690Z,10.90
2023-02-21T09:20:27.059Z,11.10
2023-02-21T09:22:54.461Z,11.10
2023-02-21T09:25:24.876Z,11.20
2023-02-21T09:27:54.786Z,11.30
2023-02-21T09:30:26.723Z,11.30
2023-02-21T09:32:55.407Z,11.30
2023-02-21T09:35:23.869Z,11.30
2023-02-21T09:37:51.522Z,11.30
2023-02-21T09:40:34.334Z,11.40
2023-02-21T09:43:03.328Z,11.40
2023-02-21T09:45:36.703Z,11.40
2023-02-21T09:48:11.926Z,11.30
2023-02-21T09:50:44.741Z,11.30
2023-02-21T09:53:16.915Z,11.20
2023-02-21T09:55:44.259Z,11.20
2023-02-21T09:58:16.604Z,11.30
2023-02-21T10:00:46.692Z,11.30
2023-02-21T10:03:32.825Z,11.30
2023-02-21T10:06:08.841Z,11.30
2023-02-21T10:08:58.315Z,11.40
2023-02-21T10:12:03.952Z,11.40
2023-02-21T10:15:09.836Z,11.30
2023-02-21T10:18:02.374Z,11.30
2023-02-21T10:20:37.624Z,11.30
2023-02-21T10:23:14.711Z,11.30
2023-02-21T10:25:45.723Z,11.30
2023-02-21T10:28:31.172Z,11.30
2023-02-21T10:31:03.520Z,11.20
2023-02-21T10:33:32.838Z,11.20
2023-02-21T10:36:00.108Z,11.20
2023-02-21T10:38:27.755Z,11.30
2023-02-21T10:41:02.116Z,11.40
2023-02-21T10:43:37.265Z,11.60
2023-02-21T10:46:25.308Z,11.70
2023-02-21T10:48:58.082Z,11.70
2023-02-21T10:51:34.486Z,11.70
2023-02-21T10:54:28.158Z,11.80
2023-02-21T10:56:55.966Z,11.90
2023-02-21T10:59:27.035Z,12.00
2023-02-21T11:01:56.597Z,11.90
2023-02-21T11:04:35.726Z,11.80
2023-02-21T11:07:07.788Z,11.40
2023-02-21T11:09:46.355Z,11.30
2023-02-21T11:12:16.821Z,11.30
2023-02-21T11:14:52.978Z,11.30
2023-02-21T11:17:24.770Z,11.40
2023-02-21T11:20:11.436Z,11.40
2023-02-21T11:22:44.117Z,11.40
2023-02-21T11:25:32.750Z,11.20
2023-02-21T11:28:05.464Z,11.10
2023-02-21T11:30:36.801Z,11.20
2023-02-21T11:33:05.505Z,11.30
2023-02-21T11:35:43.864Z,11.30
2023-02-21T11:38:38.077Z,11.20
2023-02-21T11:41:18.792Z,11.60
2023-02-21T11:43:48.064Z,12.10
2023-02-21T11:46:42.816Z,12.40
2023-02-21T11:49:19.478Z,12.40
2023-02-21T11:51:58.519Z,12.20
2023-02-21T11:54:30.636Z,12.30
2023-02-21T11:57:19.224Z,12.30
2023-02-21T12:00:31.136Z,12.30
2023-02-21T12:03:36.439Z,12.00
2023-02-21T12:06:29.203Z,11.70
2023-02-21T12:09:04.865Z,11.70
2023-02-21T12:11:40.403Z,12.20
2023-02-21T12:14:35.300Z,12.20
2023-02-21T12:17:34.558Z,12.00
2023-02-21T12:20:27.860Z,11.80
2023-02-21T12:23:43.977Z,11.80
2023-02-21T12:26:20.253Z,11.70
2023-02-21T12:28:50.266Z,11.40
2023-02-21T12:31:27.783Z,11.20
2023-02-21T12:34:09.994Z,11.00
2023-02-21T12:36:59.889Z,10.90
2023-02-21T12:39:32.971Z,11.00
2023-02-21T12:42:28.669Z,11.20
2023-02-21T12:45:22.931Z,11.50
2023-02-21T12:48:05.172Z,11.40
2023-02-21T12:50:38.742Z,11.20
2023-02-21T12:53:32.259Z,11.10
2023-02-21T12:56:06.836Z,11.00
2023-02-21T12:58:37.843Z,10.90
2023-02-21T13:01:37.422Z,10.90
2023-02-21T13:04:08.517Z,10.90
2023-02-21T13:06:51.535Z,11.40
2023-02-21T13:09:54.971Z,12.80
2023-02-21T13:12:30.899Z,14.00
2023-02-21T13:15:15.992Z,14.30
2023-02-21T13:17:45.096Z,13.50
2023-02-21T13:20:21.365Z,13.20
2023-02-21T13:23:08.816Z,12.80
2023-02-21T13:26:09.616Z,12.60
2023-02-21T13:28:39.106Z,12.40
2023-02-21T13:31:18.766Z,12.30
2023-02-21T13:33:57.997Z,12.20
2023-02-21T13:36:43.600Z,12.10
2023-02-21T13:39:16.869Z,11.90
2023-02-21T13:41:49.489Z,11.80
2023-02-21T13:44:27.258Z,11.70
2023-02-21T13:47:05.197Z,11.60
2023-02-21T13:49:55.392Z,11.60
2023-02-21T13:52:37.606Z,11.70
2023-02-21T13:55:20.040Z,11.70
2023-02-21T13:57:49.408Z,12.70
2023-02-21T14:00:25.598Z,13.20
2023-02-21T14:03:09.070Z,12.90
2023-02-21T14:05:45.522Z,12.40
2023-02-21T14:08:45.557Z,12.00
2023-02-21T14:11:24.496Z,11.90
2023-02-21T14:13:56.489Z,11.80
2023-02-21T14:16:53.369Z,11.70
2023-02-21T14:19:20.587Z,11.60
2023-02-21T14:21:49.726Z,11.40
2023-02-21T14:24:21.644Z,11.40
2023-02-21T14:26:59.664Z,12.20
2023-02-21T14:29:46.640Z,13.10
2023-02-21T14:32:13.935Z,13.30
2023-02-21T14:34:55.490Z,12.80
2023-02-21T14:37:45.584Z,12.20
2023-02-21T14:40:21.689Z,11.80
2023-02-21T14:43:02.935Z,11.60
2023-02-21T14:45:37.537Z,11.40
2023-02-21T14:48:28.473Z,11.20
2023-02-21T14:51:30.727Z,11.10
2023-02-21T14:54:11.906Z,11.00
2023-02-21T14:56:45.378Z,10.90
2023-02-21T14:59:27.567Z,10.90
2023-02-21T15:02:03.916Z,10.90
2023-02-21T15:04:34.186Z,10.90
2023-02-21T15:07:20.757Z,11.30
2023-02-21T15:10:10.204Z,12.20
2023-02-21T15:12:42.807Z,12.50
2023-02-21T15:15:35.080Z,12.10
2023-02-21T15:18:25.021Z,11.60
2023-02-21T15:21:12.482Z,11.40
2023-02-21T15:23:41.831Z,11.30
2023-02-21T15:26:32.084Z,11.30
2023-02-21T15:29:06.897Z,11.30
2023-02-21T15:31:37.262Z,11.40
2023-02-21T15:34:04.624Z,11.70
2023-02-21T15:36:33.167Z,12.00
2023-02-21T15:39:11.399Z,11.90
2023-02-21T15:41:46.159Z,11.60
2023-02-21T15:44:33.201Z,11.30
2023-02-21T15:47:03.356Z,11.00
2023-02-21T15:49:44.552Z,10.90
2023-02-21T15:52:35.217Z,10.70
2023-02-21T15:55:20.807Z,10.60
2023-02-21T15:58:02.427Z,10.50
2023-02-21T16:00:34.621Z,10.40
2023-02-21T16:03:26.548Z,10.30
2023-02-21T16:05:55.807Z,10.30
2023-02-21T16:08:23.695Z,10.20
2023-02-21T16:10:51.097Z,10.10
2023-02-21T16:13:19.320Z,10.10
2023-02-21T16:15:46.903Z,10.00
2023-02-21T16:18:19.826Z,10.00
2023-02-21T16:20:58.528Z,9.90
2023-02-21T16:23:33.800Z,9.90
2023-02-21T16:26:10.861Z,9.80
2023-02-21T16:28:40.346Z,9.70
2023-02-21T16:31:17.343Z,9.70
2023-02-21T16:33:44.836Z,9.70
2023-02-21T16:36:25.091Z,9.70
2023-02-21T16:38:52.805Z,9.70
2023-02-21T16:41:20.382Z,9.70
2023-02-21T16:43:47.845Z,9.70
2023-02-21T16:46:16.950Z,9.70
2023-02-21T16:48:46.685Z,9.70
2023-02-21T16:51:14.841Z,9.70
2023-02-21T16:53:43.743Z,9.70
2023-02-21T16:56:12.303Z,9.70
2023-02-21T16:58:45.215Z,9.70
2023-02-21T17:01:18.592Z,9.70
2023-02-21T17:03:46.056Z,9.70
2023-02-21T17:06:26.321Z,9.70
2023-02-21T17:08:53.777Z,9.70
2023-02-21T17:11:21.292Z,9.60
2023-02-21T17:13:48.983Z,9.60
2023-02-21T17:16:16.884Z,9.60
2023-02-21T17:18:45.862Z,9.60
2023-02-21T17:21:13.886Z,9.60
2023-02-21T17:23:41.855Z,9.70
2023-02-21T17:26:10.048Z,9.70
2023-02-21T17:28:40.627Z,9.70
2023-02-21T17:31:09.236Z,9.70
2023-02-21T17:33:36.822Z,9.70
2023-02-21T17:36:04.331Z,9.70
2023-02-21T17:38:31.509Z,9.70
2023-02-21T17:40:59.739Z,9.70
2023-02-21T17:43:27.782Z,9.70
2023-02-21T17:45:55.144Z,9.80
2023-02-21T17:48:23.517Z,9.70
2023-02-21T17:50:50.862Z,9.70
2023-02-21T17:53:18.446Z,9.70
2023-02-21T17:55:45.776Z,9.70
2023-02-21T17:58:12.961Z,9.70
2023-02-21T18:00:40.464Z,9.70
2023-02-21T18:03:09.746Z,9.70
2023-02-21T18:05:38.519Z,9.70
2023-02-21T18:08:06.836Z,9.70
2023-02-21T18:10:34.292Z,9.70
2023-02-21T18:13:02.067Z,9.60
2023-02-21T18:15:30.843Z,9.60
2023-02-21T18:18:06.936Z,9.60
2023-02-21T18:20:37.089Z,9.50
2023-02-21T18:23:06.834Z,9.50
2023-02-21T18:25:35.939Z,9.40
2023-02-21T18:28:04.879Z,9.40
2023-02-21T18:30:33.930Z,9.30
2023-02-21T18:33:01.892Z,9.20
2023-02-21T18:35:29.366Z,9.20
2023-02-21T18:37:59.668Z,9.20
2023-02-21T18:40:34.511Z,9.10
2023-02-21T18:43:03.172Z,9.10
2023-02-21T18:45:33.481Z,9.00
2023-02-21T18:48:02.364Z,9.00
2023-02-21T18:50:29.861Z,9.00
2023-02-21T18:53:02.672Z,8.90
2023-02-21T18:55:31.723Z,8.90
2023-02-21T18:57:59.866Z,8.90
2023-02-21T19:00:28.162Z,8.80
2023-02-21T19:02:56.727Z,8.80
2023-02-21T19:05:25.285Z,8.60
2023-02-21T19:07:56.117Z,8.60
2023-02-21T19:10:25.406Z,8.60
2023-02-21T19:12:52.792Z,8.60
2023-02-21T19:15:24.343Z,8.60
2023-02-21T19:17:51.612Z,8.50
2023-02-21T19:20:20.620Z,8.50
2023-02-21T19:22:48.304Z,8.50
2023-02-21T19:25:17.638Z,8.50
2023-02-21T19:27:45.768Z,8.50
2023-02-21T19:30:14.326Z,8.50
2023-02-21T19:32:41.541Z,8.40
2023-02-21T19:35:08.823Z,8.40
2023-02-21T19:37:36.501Z,8.40
2023-02-21T19:40:07.894Z,8.40
2023-02-21T19:42:35.929Z,8.40
2023-02-21T19:45:03.286Z,8.40
2023-02-21T19:47:31.165Z,8.30
2023-02-21T19:49:58.745Z,8.30
2023-02-21T19:52:25.963Z,8.20
2023-02-21T19:54:53.329Z,8.10
2023-02-21T19:57:20.893Z,8.10
2023-02-21T19:59:48.124Z,8.00
2023-02-21T20:02:16.652Z,8.00
2023-02-21T20:04:44.185Z,8.00
2023-02-21T20:07:13.064Z,8.00
2023-02-21T20:09:41.136Z,8.00
2023-02-21T20:12:09.617Z,7.90
2023-02-21T20:14:36.859Z,7.90
2023-02-21T20:17:04.946Z,7.90
2023-02-21T20:19:32.287Z,7.90
2023-02-21T20:21:59.563Z,7.90
2023-02-21T20:24:26.849Z,7.90
2023-02-21T20:26:55.024Z,7.80
2023-02-21T20:29:23.735Z,7.80
2023-02-21T20:31:51.126Z,7.80
2023-02-21T20:34:18.618Z,7.80
2023-02-21T20:36:46.339Z,7.80
2023-02-21T20:39:31.951Z,7.70
2023-02-21T20:42:01.307Z,7.70
2023-02-21T20:44:34.615Z,7.60
2023-02-21T20:47:02.743Z,7.60
2023-02-21T20:49:30.538Z,7.50
2023-02-21T20:51:58.710Z,7.50
2023-02-21T20:54:26.359Z,7.40
2023-02-21T20:56:57.351Z,7.40
2023-02-21T20:59:30.672Z,7.40
2023-02-21T21:01:59.375Z,7.30
2023-02-21T21:04:38.364Z,7.30
2023-02-21T21:07:10.149Z,7.30
2023-02-21T21:09:39.629Z,7.30
2023-02-21T21:12:10.771Z,7.20
2023-02-21T21:14:42.194Z,7.20
2023-02-21T21:17:13.015Z,7.30
2023-02-21T21:19:45.093Z,7.20
2023-02-21T21:22:15.088Z,7.30
2023-02-21T21:24:42.816Z,7.30
2023-02-21T21:27:10.963Z,7.20
2023-02-21T21:29:42.699Z,7.20
2023-02-21T21:32:12.324Z,7.20
2023-02-21T21:34:43.468Z,7.10
2023-02-21T21:37:10.632Z,7.10
2023-02-21T21:39:38.234Z,7.10
2023-02-21T21:42:11.261Z,7.00
2023-02-21T21:44:48.159Z,7.10
2023-02-21T21:47:16.081Z,7.10
2023-02-21T21:49:43.255Z,7.10
2023-02-21T21:52:10.942Z,7.00
2023-02-21T21:54:40.743Z,7.00
2023-02-21T21:57:07.970Z,7.00
2023-02-21T21:59:38.317Z,7.00
2023-02-21T22:02:05.589Z,7.00
2023-02-21T22:04:32.903Z,7.00
2023-02-21T22:07:00.420Z,7.00
2023-02-21T22:09:27.710Z,7.00
2023-02-21T22:11:54.958Z,7.00
2023-02-21T22:14:23.020Z,7.00
2023-02-21T22:16:53.435Z,7.00
2023-02-21T22:19:23.381Z,7.10
2023-02-21T22:21:55.024Z,7.10
2023-02-21T22:24:24.042Z,7.00
2023-02-21T22:26:55.887Z,7.00
2023-02-21T22:29:23.371Z,7.00
2023-02-21T22:31:52.299Z,7.00
2023-02-21T22:34:25.896Z,7.00
2023-02-21T22:36:56.349Z,7.00
2023-02-21T22:39:25.288Z,6.90
2023-02-21T22:41:52.889Z,6.90
2023-02-21T22:44:23.515Z,6.90
2023-02-21T22:46:58.894Z,6.90
2023-02-21T22:49:30.950Z,6.90
2023-02-21T22:51:58.309Z,6.90
2023-02-21T22:54:26.461Z,6.80
2023-02-21T22:56:55.310Z,6.70
2023-02-21T22:59:26.848Z,6.70
2023-02-21T23:01:54.017Z,6.70
2023-02-21T23:04:27.887Z,6.60
2023-02-21T23:06:58.520Z,6.70
2023-02-21T23:09:28.319Z,6.60
2023-02-21T23:12:01.504Z,6.60
2023-02-21T23:14:31.806Z,6.50
2023-02-21T23:16:59.954Z,6.50
2023-02-21T23:19:29.442Z,6.40
2023-02-21T23:22:00.503Z,6.40
2023-02-21T23:24:28.429Z,6.30
2023-02-21T23:26:55.836Z,6.30
2023-02-21T23:29:25.549Z,6.30
2023-02-21T23:31:54.539Z,6.30
2023-02-21T23:34:22.240Z,6.30
2023-02-21T23:36:49.490Z,6.30
2023-02-21T23:39:16.859Z,6.40
2023-02-21T23:41:49.484Z,6.40
2023-02-21T23:44:16.895Z,6.40
2023-02-21T23:46:45.171Z,6.40
2023-02-21T23:49:16.204Z,6.30
2023-02-21T23:51:46.936Z,6.30
2023-02-21T23:54:15.595Z,6.30
2023-02-21T23:56:47.163Z,6.40
2023-02-21T23:59:16.926Z,6.40
